createdAt,value
2022-08-29T00:01:32.985Z,2.62
2022-08-29T00:06:37.135Z,2.85
2022-08-29T00:11:46.443Z,2.25
2022-08-29T00:16:50.650Z,2.03
2022-08-29T00:21:54.819Z,2.03
2022-08-29T00:27:00.384Z,2.97
2022-08-29T00:32:04.715Z,2.10
2022-08-29T00:37:08.503Z,2.10
2022-08-29T00:42:15.866Z,2.45
2022-08-29T00:47:23.136Z,2.20
2022-08-29T00:52:31.205Z,2.10
2022-08-29T00:57:36.351Z,2.00
2022-08-29T01:02:41.533Z,1.87
2022-08-29T01:07:45.628Z,1.87
2022-08-29T01:12:51.166Z,1.77
2022-08-29T01:17:56.688Z,2.20
2022-08-29T01:23:04.349Z,2.05
2022-08-29T01:28:14.475Z,2.20
2022-08-29T01:33:18.300Z,2.30
2022-08-29T01:38:28.555Z,2.10
2022-08-29T01:43:41.204Z,2.12
2022-08-29T01:48:46.460Z,2.95
2022-08-29T01:53:50.166Z,2.75
2022-08-29T01:58:57.408Z,2.97
2022-08-29T02:04:01.256Z,3.35
2022-08-29T02:09:05.906Z,3.30
2022-08-29T02:14:19.619Z,3.85
2022-08-29T02:19:24.125Z,4.20
2022-08-29T02:24:27.814Z,3.80
2022-08-29T02:29:37.916Z,4.15
2022-08-29T02:34:47.706Z,3.42
2022-08-29T02:39:52.416Z,3.83
2022-08-29T02:44:57.476Z,4.00
2022-08-29T02:50:01.194Z,3.87
2022-08-29T02:55:05.672Z,4.43
2022-08-29T03:00:14.628Z,3.95
2022-08-29T03:05:20.435Z,4.05
2022-08-29T03:10:25.078Z,3.50
2022-08-29T03:15:30.413Z,4.45
2022-08-29T03:20:36.125Z,4.87
2022-08-29T03:25:39.859Z,4.62
2022-08-29T03:30:45.059Z,5.72
2022-08-29T03:35:48.751Z,3.90
2022-08-29T03:40:53.437Z,4.12
2022-08-29T03:46:03.455Z,3.30
2022-08-29T03:51:07.641Z,3.40
2022-08-29T03:56:18.417Z,3.28
2022-08-29T04:01:26.793Z,3.87
2022-08-29T04:06:30.559Z,3.77
2022-08-29T04:11:34.505Z,4.20
2022-08-29T04:16:39.955Z,4.55
2022-08-29T04:21:44.787Z,3.95
2022-08-29T04:26:48.472Z,3.67
2022-08-29T04:31:53.868Z,3.85
2022-08-29T04:36:59.565Z,4.28
2022-08-29T04:42:03.326Z,4.15
2022-08-29T04:47:08.477Z,4.75
2022-08-29T04:52:13.919Z,5.40
2022-08-29T04:57:17.668Z,4.82
2022-08-29T05:02:23.128Z,4.78
2022-08-29T05:07:28.879Z,4.65
2022-08-29T05:12:33.832Z,4.00
2022-08-29T05:17:39.482Z,4.25
2022-08-29T05:22:44.016Z,4.35
2022-08-29T05:27:47.972Z,4.18
2022-08-29T05:32:54.895Z,5.37
2022-08-29T05:37:58.714Z,4.70
2022-08-29T05:43:02.424Z,4.62
2022-08-29T05:48:09.437Z,4.37
2022-08-29T05:53:16.716Z,5.40
2022-08-29T05:58:21.065Z,4.75
2022-08-29T06:03:26.138Z,5.50
2022-08-29T06:08:29.955Z,4.97
2022-08-29T06:13:33.655Z,4.50
2022-08-29T06:18:38.732Z,5.10
2022-08-29T06:23:43.885Z,6.50
2022-08-29T06:28:48.309Z,4.80
2022-08-29T06:33:54.680Z,4.45
2022-08-29T06:39:00.089Z,4.72
2022-08-29T06:44:04.492Z,4.62
2022-08-29T06:49:11.593Z,5.22
2022-08-29T06:54:15.606Z,5.40
2022-08-29T06:59:20.818Z,4.75
2022-08-29T07:04:26.756Z,4.85
2022-08-29T07:09:32.321Z,5.22
2022-08-29T07:14:36.028Z,4.62
2022-08-29T07:19:41.140Z,4.47
2022-08-29T07:24:44.813Z,4.07
2022-08-29T07:29:50.792Z,4.28
2022-08-29T07:34:56.406Z,4.45
2022-08-29T07:40:00.334Z,3.90
2022-08-29T07:45:04.886Z,4.50
2022-08-29T07:50:12.451Z,4.22
2022-08-29T07:55:16.226Z,4.23
2022-08-29T08:00:20.781Z,3.75
2022-08-29T08:05:25.959Z,3.87
2022-08-29T08:10:29.811Z,3.97
2022-08-29T08:15:33.552Z,3.95
2022-08-29T08:20:38.768Z,4.22
2022-08-29T08:25:42.737Z,3.35
2022-08-29T08:30:46.616Z,3.40
2022-08-29T08:35:52.138Z,3.37
2022-08-29T08:41:02.264Z,3.35
2022-08-29T08:46:06.288Z,3.45
2022-08-29T08:51:19.108Z,3.58
2022-08-29T08:56:36.704Z,3.60
2022-08-29T09:01:44.269Z,3.10
2022-08-29T09:07:00.334Z,3.37
2022-08-29T09:12:15.760Z,3.00
2022-08-29T09:17:24.668Z,3.10
2022-08-29T09:22:33.134Z,2.83
2022-08-29T09:27:38.316Z,3.60
2022-08-29T09:33:00.854Z,3.15
2022-08-29T09:38:09.247Z,2.65
2022-08-29T09:43:19.839Z,2.90
2022-08-29T09:48:24.567Z,2.70
2022-08-29T09:53:30.234Z,2.72
2022-08-29T09:58:39.953Z,2.67
2022-08-29T10:03:53.339Z,2.50
2022-08-29T10:09:02.764Z,2.90
2022-08-29T10:14:12.874Z,3.12
2022-08-29T10:19:22.221Z,2.80
2022-08-29T10:24:58.534Z,3.15
2022-08-29T10:30:10.652Z,2.97
2022-08-29T10:35:19.714Z,2.58
2022-08-29T10:40:30.941Z,3.12
2022-08-29T10:45:44.121Z,2.95
2022-08-29T10:50:55.662Z,2.78
2022-08-29T10:56:06.649Z,2.60
2022-08-29T11:01:22.379Z,2.33
2022-08-29T11:06:31.056Z,2.85
2022-08-29T11:11:38.813Z,2.72
2022-08-29T11:16:47.557Z,2.72
2022-08-29T11:21:56.851Z,2.70
2022-08-29T11:27:08.794Z,3.45
2022-08-29T11:32:20.745Z,3.08
2022-08-29T11:37:51.711Z,3.30
2022-08-29T11:43:02.054Z,3.08
2022-08-29T11:48:30.699Z,3.35
2022-08-29T11:53:37.661Z,2.90
2022-08-29T11:58:46.310Z,2.80
2022-08-29T12:03:50.320Z,3.42
2022-08-29T12:09:02.836Z,3.05
2022-08-29T12:14:09.705Z,3.03
2022-08-29T12:19:33.864Z,3.40
2022-08-29T12:24:44.129Z,3.28
2022-08-29T12:30:02.696Z,3.50
2022-08-29T12:35:48.610Z,3.72
2022-08-29T12:41:07.049Z,3.20
2022-08-29T12:51:43.882Z,3.55
2022-08-29T12:56:51.787Z,3.10
2022-08-29T13:01:58.988Z,3.00
2022-08-29T13:07:05.322Z,3.08
2022-08-29T13:12:16.332Z,3.28
2022-08-29T13:17:23.994Z,2.83
2022-08-29T13:22:31.289Z,2.58
2022-08-29T13:27:35.651Z,2.60
2022-08-29T13:32:50.020Z,2.70
2022-08-29T13:38:18.872Z,2.47
2022-08-29T13:43:37.197Z,2.45
2022-08-29T13:48:43.613Z,2.70
2022-08-29T13:58:51.289Z,2.65
2022-08-29T14:03:56.614Z,2.92
2022-08-29T14:09:01.254Z,2.30
2022-08-29T14:14:04.988Z,3.28
2022-08-29T14:19:10.148Z,3.05
2022-08-29T14:24:14.224Z,2.97
2022-08-29T14:29:18.111Z,2.58
2022-08-29T14:34:23.269Z,2.60
2022-08-29T14:39:27.579Z,2.40
2022-08-29T14:44:31.955Z,3.50
2022-08-29T14:49:37.171Z,2.83
2022-08-29T14:54:41.032Z,3.17
2022-08-29T14:59:45.018Z,3.00
2022-08-29T15:04:51.033Z,2.72
2022-08-29T15:09:55.090Z,2.70
2022-08-29T15:14:59.064Z,2.70
2022-08-29T15:25:30.951Z,3.20
2022-08-29T15:30:35.238Z,2.90
2022-08-29T15:35:41.043Z,2.55
2022-08-29T15:40:44.834Z,2.30
2022-08-29T15:45:48.741Z,2.35
2022-08-29T15:50:55.056Z,2.70
2022-08-29T15:55:58.844Z,2.65
2022-08-29T16:01:02.625Z,2.87
2022-08-29T16:06:08.102Z,2.65
2022-08-29T16:11:11.939Z,2.70
2022-08-29T16:16:16.069Z,3.28
2022-08-29T16:21:24.101Z,3.15
2022-08-29T16:26:28.567Z,2.97
2022-08-29T16:31:32.937Z,3.42
2022-08-29T16:36:38.261Z,2.45
2022-08-29T16:41:42.508Z,2.70
2022-08-29T16:46:46.211Z,2.55
2022-08-29T16:51:52.536Z,2.90
2022-08-29T16:56:57.522Z,3.57
2022-08-29T17:02:01.492Z,2.58
2022-08-29T17:07:06.948Z,2.87
2022-08-29T17:12:09.864Z,2.83
2022-08-29T17:17:13.726Z,2.80
2022-08-29T17:22:19.399Z,2.60
2022-08-29T17:27:26.798Z,3.17
2022-08-29T17:32:33.124Z,3.30
2022-08-29T17:37:39.313Z,2.47
2022-08-29T17:42:44.250Z,3.20
2022-08-29T17:47:48.020Z,3.30
2022-08-29T17:52:53.405Z,2.42
2022-08-29T17:57:57.324Z,2.67
2022-08-29T18:03:01.374Z,2.95
2022-08-29T18:08:07.423Z,2.80
2022-08-29T18:13:11.339Z,2.62
2022-08-29T18:18:15.511Z,3.25
2022-08-29T18:23:20.714Z,2.33
2022-08-29T18:28:24.528Z,2.78
2022-08-29T18:33:44.187Z,3.53
2022-08-29T18:38:53.791Z,3.47
2022-08-29T18:43:58.921Z,3.37
2022-08-29T18:49:03.065Z,3.67
2022-08-29T18:54:09.031Z,4.28
2022-08-29T18:59:13.059Z,3.55
2022-08-29T19:04:16.815Z,2.97
2022-08-29T19:09:22.017Z,3.53
2022-08-29T19:14:25.759Z,3.15
2022-08-29T19:19:55.079Z,3.50
2022-08-29T19:25:01.267Z,2.53
2022-08-29T19:30:09.973Z,2.83
2022-08-29T19:35:14.183Z,2.35
2022-08-29T19:40:21.668Z,2.75
2022-08-29T19:45:26.083Z,2.80
2022-08-29T19:50:30.073Z,2.60
2022-08-29T19:55:36.288Z,2.50
2022-08-29T20:00:40.942Z,2.87
2022-08-29T20:05:44.704Z,2.55
2022-08-29T20:10:50.347Z,2.65
2022-08-29T20:15:54.190Z,2.97
2022-08-29T20:20:58.069Z,2.80
2022-08-29T20:26:03.144Z,2.83
2022-08-29T20:31:07.257Z,3.25
2022-08-29T20:36:28.640Z,2.70
2022-08-29T20:41:34.188Z,2.83
2022-08-29T20:46:42.460Z,2.92
2022-08-29T20:51:46.436Z,3.28
2022-08-29T20:56:51.992Z,3.20
2022-08-29T21:01:56.335Z,3.12
2022-08-29T21:07:02.494Z,3.28
2022-08-29T21:12:08.340Z,3.97
2022-08-29T21:17:14.846Z,4.12
2022-08-29T21:22:21.758Z,3.83
2022-08-29T21:27:30.725Z,3.45
2022-08-29T21:32:34.539Z,4.50
2022-08-29T21:37:38.793Z,3.22
2022-08-29T21:42:44.041Z,4.72
2022-08-29T21:47:49.626Z,4.00
2022-08-29T21:52:54.197Z,3.58
2022-08-29T21:58:00.687Z,4.43
2022-08-29T22:03:07.039Z,4.55
2022-08-29T22:08:13.957Z,4.68
2022-08-29T22:13:19.379Z,4.00
2022-08-29T22:18:23.514Z,3.78
2022-08-29T22:23:27.457Z,4.85
2022-08-29T22:28:32.617Z,4.43
2022-08-29T22:33:36.458Z,4.80
2022-08-29T22:38:41.469Z,4.40
2022-08-29T22:43:46.604Z,4.47
2022-08-29T22:48:51.649Z,4.37
2022-08-29T22:54:13.439Z,4.00
2022-08-29T22:59:18.672Z,3.75
2022-08-29T23:04:23.300Z,4.18
2022-08-29T23:09:27.024Z,4.37
2022-08-29T23:14:36.040Z,4.20
2022-08-29T23:19:41.180Z,4.00
2022-08-29T23:24:58.457Z,4.18
2022-08-29T23:30:08.042Z,4.18
2022-08-29T23:35:11.755Z,4.80
2022-08-29T23:40:15.687Z,4.35
2022-08-29T23:45:20.965Z,4.57
2022-08-29T23:50:24.686Z,4.03
2022-08-29T23:55:28.543Z,4.10
